Time,TemperatureF,DewpointF,PressureIn,WindDirection,WindDirectionDegrees,WindSpeedMPH,WindSpeedGustMPH,Humidity,HourlyPrecipIn,Conditions,Clouds,dailyrainin,SoftwareType,DateUTC
2013-04-18 00:02:00,62.0,22.0,29.53,SW,217,5.0,24.0,21,0.00,,,0.00,,2013-04-18 05:02:00,
2013-04-18 00:12:00,62.0,22.0,29.53,SW,217,5.0,24.0,21,0.00,,,0.00,,2013-04-18 05:12:00,
2013-04-18 00:22:00,62.0,22.0,29.53,SW,217,5.0,24.0,21,0.00,,,0.00,,2013-04-18 05:22:00,
2013-04-18 00:33:00,60.0,22.0,29.53,SSW,192,9.0,21.0,23,0.00,,,0.00,,2013-04-18 05:33:00,
2013-04-18 00:42:00,60.0,22.0,29.53,SSW,192,9.0,21.0,23,0.00,,,0.00,,2013-04-18 05:42:00,
2013-04-18 00:52:00,60.0,22.0,29.53,SSW,192,9.0,21.0,23,0.00,,,0.00,,2013-04-18 05:52:00,
2013-04-18 01:02:00,58.0,21.0,29.55,South,186,1.0,20.0,24,0.00,,,0.00,,2013-04-18 06:02:00,
2013-04-18 01:12:00,58.0,21.0,29.55,South,186,1.0,20.0,24,0.00,,,0.00,,2013-04-18 06:12:00,
2013-04-18 01:22:00,58.0,21.0,29.55,South,186,1.0,20.0,24,0.00,,,0.00,,2013-04-18 06:22:00,
2013-04-18 01:32:00,56.0,21.0,29.57,WSW,257,5.0,12.0,25,0.00,,,0.00,,2013-04-18 06:32:00,
2013-04-18 01:42:00,56.0,21.0,29.57,WSW,257,5.0,12.0,25,0.00,,,0.00,,2013-04-18 06:42:00,
2013-04-18 01:52:00,56.0,21.0,29.57,WSW,257,5.0,12.0,25,0.00,,,0.00,,2013-04-18 06:52:00,
2013-04-18 02:02:00,55.0,20.0,29.57,WSW,253,5.0,16.0,25,0.00,,,0.00,,2013-04-18 07:02:00,
2013-04-18 02:12:00,55.0,20.0,29.57,WSW,253,5.0,16.0,25,0.00,,,0.00,,2013-04-18 07:12:00,
2013-04-18 02:22:00,55.0,20.0,29.57,WSW,253,5.0,16.0,25,0.00,,,0.00,,2013-04-18 07:22:00,
2013-04-18 02:32:00,53.0,18.0,29.59,WSW,240,5.0,13.0,25,0.00,,,0.00,,2013-04-18 07:32:00,
2013-04-18 02:42:00,53.0,18.0,29.59,WSW,240,5.0,13.0,25,0.00,,,0.00,,2013-04-18 07:42:00,
2013-04-18 02:52:00,53.0,18.0,29.59,WSW,240,5.0,13.0,25,0.00,,,0.00,,2013-04-18 07:52:00,
2013-04-18 03:02:00,52.0,18.0,29.60,West,267,2.0,12.0,26,0.00,,,0.00,,2013-04-18 08:02:00,
2013-04-18 03:12:00,52.0,18.0,29.60,West,267,2.0,12.0,26,0.00,,,0.00,,2013-04-18 08:12:00,
2013-04-18 03:22:00,52.0,18.0,29.60,West,267,2.0,12.0,26,0.00,,,0.00,,2013-04-18 08:22:00,
2013-04-18 03:32:00,49.0,14.0,29.60,South,175,7.0,18.0,24,0.00,,,0.00,,2013-04-18 08:32:00,
2013-04-18 03:42:00,49.0,14.0,29.60,South,175,7.0,18.0,24,0.00,,,0.00,,2013-04-18 08:42:00,
2013-04-18 03:52:00,49.0,14.0,29.60,South,175,7.0,18.0,24,0.00,,,0.00,,2013-04-18 08:52:00,
2013-04-18 04:02:00,48.0,13.0,29.63,NNE,14,1.0,14.0,24,0.00,,,0.00,,2013-04-18 09:02:00,
2013-04-18 04:12:00,48.0,13.0,29.63,NNE,14,1.0,14.0,24,0.00,,,0.00,,2013-04-18 09:12:00,
2013-04-18 04:22:00,48.0,13.0,29.63,NNE,14,1.0,14.0,24,0.00,,,0.00,,2013-04-18 09:22:00,
2013-04-18 04:33:00,48.0,13.0,29.63,NNW,346,1.0,14.0,24,0.00,,,0.00,,2013-04-18 09:33:00,
2013-04-18 04:43:00,48.0,13.0,29.63,NNW,346,1.0,14.0,24,0.00,,,0.00,,2013-04-18 09:43:00,
2013-04-18 04:53:00,48.0,13.0,29.63,NNW,346,1.0,14.0,24,0.00,,,0.00,,2013-04-18 09:53:00,
2013-04-18 05:03:00,46.0,13.0,29.65,SSW,202,2.0,7.0,26,0.00,,,0.00,,2013-04-18 10:03:00,
2013-04-18 05:12:00,46.0,13.0,29.65,SSW,202,2.0,7.0,26,0.00,,,0.00,,2013-04-18 10:12:00,
2013-04-18 05:23:00,46.0,13.0,29.65,SSW,202,2.0,7.0,26,0.00,,,0.00,,2013-04-18 10:23:00,
2013-04-18 05:32:00,45.0,14.0,29.66,West,268,2.0,8.0,28,0.00,,,0.00,,2013-04-18 10:32:00,
2013-04-18 05:42:00,45.0,14.0,29.66,West,268,2.0,8.0,28,0.00,,,0.00,,2013-04-18 10:42:00,
2013-04-18 05:52:00,45.0,14.0,29.66,West,268,2.0,8.0,28,0.00,,,0.00,,2013-04-18 10:52:00,
2013-04-18 06:02:00,45.0,15.0,29.68,West,264,2.0,8.0,29,0.00,,,0.00,,2013-04-18 11:02:00,
2013-04-18 06:12:00,45.0,15.0,29.68,West,264,2.0,8.0,29,0.00,,,0.00,,2013-04-18 11:12:00,
2013-04-18 06:22:00,45.0,15.0,29.68,West,264,2.0,8.0,29,0.00,,,0.00,,2013-04-18 11:22:00,
2013-04-18 06:32:00,43.0,14.0,29.70,NNE,27,3.0,8.0,31,0.00,,,0.00,,2013-04-18 11:32:00,
2013-04-18 06:42:00,43.0,14.0,29.70,NNE,27,3.0,8.0,31,0.00,,,0.00,,2013-04-18 11:42:00,
2013-04-18 06:52:00,43.0,14.0,29.70,NNE,27,3.0,8.0,31,0.00,,,0.00,,2013-04-18 11:52:00,
2013-04-18 07:02:00,42.0,15.0,29.72,North,3,2.0,8.0,33,0.00,,,0.00,,2013-04-18 12:02:00,
2013-04-18 07:12:00,42.0,15.0,29.72,North,3,2.0,8.0,33,0.00,,,0.00,,2013-04-18 12:12:00,
2013-04-18 07:22:00,42.0,15.0,29.72,North,3,2.0,8.0,33,0.00,,,0.00,,2013-04-18 12:22:00,
2013-04-18 07:32:00,41.0,15.0,29.73,NW,309,1.0,8.0,34,0.00,,,0.00,,2013-04-18 12:32:00,
2013-04-18 07:42:00,41.0,15.0,29.73,NW,309,1.0,8.0,34,0.00,,,0.00,,2013-04-18 12:42:00,
2013-04-18 07:52:00,41.0,15.0,29.73,NW,309,1.0,8.0,34,0.00,,,0.00,,2013-04-18 12:52:00,
2013-04-18 08:02:00,38.0,15.0,29.77,NW,309,0.0,2.0,38,0.00,,,0.00,,2013-04-18 13:02:00,
2013-04-18 08:12:00,38.0,15.0,29.77,NW,309,0.0,2.0,38,0.00,,,0.00,,2013-04-18 13:12:00,
2013-04-18 08:22:00,38.0,15.0,29.77,NW,309,0.0,2.0,38,0.00,,,0.00,,2013-04-18 13:22:00,
2013-04-18 08:32:00,37.0,14.0,29.78,NW,305,1.0,3.0,39,0.00,,,0.00,,2013-04-18 13:32:00,
2013-04-18 08:42:00,37.0,14.0,29.78,NW,305,1.0,3.0,39,0.00,,,0.00,,2013-04-18 13:42:00,
2013-04-18 08:53:00,37.0,14.0,29.78,NW,305,1.0,3.0,39,0.00,,,0.00,,2013-04-18 13:53:00,
2013-04-18 09:02:00,45.0,16.0,29.75,NW,305,0.0,3.0,31,0.00,,,0.00,,2013-04-18 14:02:00,
2013-04-18 09:12:00,45.0,16.0,29.75,NW,305,0.0,3.0,31,0.00,,,0.00,,2013-04-18 14:12:00,
2013-04-18 09:22:00,45.0,16.0,29.75,NW,305,0.0,3.0,31,0.00,,,0.00,,2013-04-18 14:22:00,
2013-04-18 09:32:00,45.0,23.0,29.75,North,353,2.0,8.0,41,0.00,,,0.00,,2013-04-18 14:32:00,
2013-04-18 09:43:00,45.0,23.0,29.75,North,353,2.0,8.0,41,0.00,,,0.00,,2013-04-18 14:43:00,
2013-04-18 09:52:00,45.0,23.0,29.75,North,353,2.0,8.0,41,0.00,,,0.00,,2013-04-18 14:52:00,
2013-04-18 10:02:00,45.0,26.0,29.77,NE,35,2.0,8.0,47,0.00,,,0.00,,2013-04-18 15:02:00,
2013-04-18 10:12:00,45.0,26.0,29.77,NE,35,2.0,8.0,47,0.00,,,0.00,,2013-04-18 15:12:00,
2013-04-18 10:22:00,45.0,26.0,29.77,NE,35,2.0,8.0,47,0.00,,,0.00,,2013-04-18 15:22:00,
2013-04-18 10:33:00,47.0,23.0,29.76,WNW,282,1.0,7.0,39,0.00,,,0.00,,2013-04-18 15:33:00,
2013-04-18 10:43:00,47.0,23.0,29.76,WNW,282,1.0,7.0,39,0.00,,,0.00,,2013-04-18 15:43:00,
2013-04-18 10:53:00,47.0,23.0,29.76,WNW,282,1.0,7.0,39,0.00,,,0.00,,2013-04-18 15:53:00,
2013-04-18 11:03:00,48.0,24.0,29.79,NNW,335,2.0,8.0,39,0.00,,,0.00,,2013-04-18 16:03:00,
2013-04-18 11:13:00,48.0,24.0,29.79,NNW,335,2.0,8.0,39,0.00,,,0.00,,2013-04-18 16:13:00,
2013-04-18 11:23:00,48.0,24.0,29.79,NNW,335,2.0,8.0,39,0.00,,,0.00,,2013-04-18 16:23:00,
2013-04-18 11:33:00,50.0,18.0,29.79,NW,311,2.0,12.0,28,0.00,,,0.00,,2013-04-18 16:33:00,
2013-04-18 11:43:00,50.0,18.0,29.79,NW,311,2.0,12.0,28,0.00,,,0.00,,2013-04-18 16:43:00,
2013-04-18 11:53:00,50.0,18.0,29.79,NW,311,2.0,12.0,28,0.00,,,0.00,,2013-04-18 16:53:00,
2013-04-18 12:03:00,50.0,17.0,29.82,NNW,343,3.0,12.0,27,0.00,,,0.00,,2013-04-18 17:03:00,
2013-04-18 12:12:00,50.0,17.0,29.82,NNW,343,3.0,12.0,27,0.00,,,0.00,,2013-04-18 17:12:00,
2013-04-18 12:22:00,50.0,17.0,29.82,NNW,343,3.0,12.0,27,0.00,,,0.00,,2013-04-18 17:22:00,
2013-04-18 12:33:00,53.0,18.0,29.80,NW,315,5.0,13.0,25,0.00,,,0.00,,2013-04-18 17:33:00,
2013-04-18 12:43:00,53.0,18.0,29.80,NW,315,5.0,13.0,25,0.00,,,0.00,,2013-04-18 17:43:00,
2013-04-18 12:52:00,53.0,18.0,29.80,NW,315,5.0,13.0,25,0.00,,,0.00,,2013-04-18 17:52:00,
2013-04-18 13:02:00,54.0,20.0,29.80,WNW,288,2.0,13.0,26,0.00,,,0.00,,2013-04-18 18:02:00,
2013-04-18 13:12:00,54.0,20.0,29.80,WNW,288,2.0,13.0,26,0.00,,,0.00,,2013-04-18 18:12:00,
2013-04-18 13:23:00,54.0,20.0,29.80,WNW,288,2.0,13.0,26,0.00,,,0.00,,2013-04-18 18:23:00,
2013-04-18 13:32:00,55.0,19.0,29.80,NNW,337,5.0,16.0,24,0.00,,,0.00,,2013-04-18 18:32:00,
2013-04-18 13:43:00,55.0,19.0,29.80,NNW,337,5.0,16.0,24,0.00,,,0.00,,2013-04-18 18:43:00,
2013-04-18 13:52:00,55.0,19.0,29.80,NNW,337,5.0,16.0,24,0.00,,,0.00,,2013-04-18 18:52:00,
2013-04-18 14:02:00,56.0,19.0,29.81,NNW,328,5.0,16.0,23,0.00,,,0.00,,2013-04-18 19:02:00,
2013-04-18 14:12:00,56.0,19.0,29.81,NNW,328,5.0,16.0,23,0.00,,,0.00,,2013-04-18 19:12:00,
2013-04-18 14:22:00,56.0,19.0,29.81,NNW,328,5.0,16.0,23,0.00,,,0.00,,2013-04-18 19:22:00,
2013-04-18 14:32:00,55.0,16.0,29.81,WNW,285,8.0,20.0,21,0.00,,,0.00,,2013-04-18 19:32:00,
2013-04-18 14:42:00,55.0,16.0,29.81,WNW,285,8.0,20.0,21,0.00,,,0.00,,2013-04-18 19:42:00,
2013-04-18 14:53:00,55.0,16.0,29.81,WNW,285,8.0,20.0,21,0.00,,,0.00,,2013-04-18 19:53:00,
2013-04-18 15:02:00,56.0,17.0,29.82,SW,233,2.0,17.0,21,0.00,,,0.00,,2013-04-18 20:02:00,
2013-04-18 15:12:00,56.0,17.0,29.82,SW,233,2.0,17.0,21,0.00,,,0.00,,2013-04-18 20:12:00,
2013-04-18 15:22:00,56.0,17.0,29.82,SW,233,2.0,17.0,21,0.00,,,0.00,,2013-04-18 20:22:00,
2013-04-18 15:32:00,56.0,17.0,29.83,West,281,3.0,18.0,21,0.00,,,0.00,,2013-04-18 20:32:00,
2013-04-18 15:42:00,56.0,17.0,29.83,West,281,3.0,18.0,21,0.00,,,0.00,,2013-04-18 20:42:00,
2013-04-18 15:52:00,56.0,17.0,29.83,West,281,3.0,18.0,21,0.00,,,0.00,,2013-04-18 20:52:00,
2013-04-18 16:02:00,56.0,16.0,29.82,West,268,8.0,17.0,20,0.00,,,0.00,,2013-04-18 21:02:00,
2013-04-18 16:12:00,56.0,16.0,29.82,West,268,8.0,17.0,20,0.00,,,0.00,,2013-04-18 21:12:00,
2013-04-18 16:22:00,56.0,16.0,29.82,West,268,8.0,17.0,20,0.00,,,0.00,,2013-04-18 21:22:00,
2013-04-18 16:32:00,57.0,19.0,29.82,SW,217,2.0,16.0,22,0.00,,,0.00,,2013-04-18 21:32:00,
2013-04-18 16:43:00,57.0,19.0,29.82,SW,217,2.0,16.0,22,0.00,,,0.00,,2013-04-18 21:43:00,
2013-04-18 16:53:00,57.0,19.0,29.82,SW,217,2.0,16.0,22,0.00,,,0.00,,2013-04-18 21:53:00,
2013-04-18 17:02:00,58.0,16.0,29.83,WSW,240,4.0,18.0,19,0.00,,,0.00,,2013-04-18 22:02:00,
2013-04-18 17:13:00,58.0,16.0,29.83,WSW,240,4.0,18.0,19,0.00,,,0.00,,2013-04-18 22:13:00,
2013-04-18 17:23:00,58.0,16.0,29.83,WSW,240,4.0,18.0,19,0.00,,,0.00,,2013-04-18 22:23:00,
2013-04-18 17:32:00,58.0,15.0,29.83,WSW,240,5.0,22.0,18,0.00,,,0.00,,2013-04-18 22:32:00,
2013-04-18 17:42:00,58.0,15.0,29.83,WSW,240,5.0,22.0,18,0.00,,,0.00,,2013-04-18 22:42:00,
2013-04-18 17:52:00,58.0,15.0,29.83,WSW,240,5.0,22.0,18,0.00,,,0.00,,2013-04-18 22:52:00,
2013-04-18 18:04:00,59.0,14.0,29.83,West,269,7.0,17.0,17,0.00,,,0.00,,2013-04-18 23:04:00,
2013-04-18 18:12:00,59.0,14.0,29.83,West,269,7.0,17.0,17,0.00,,,0.00,,2013-04-18 23:12:00,
2013-04-18 18:21:00,59.0,14.0,29.83,West,269,7.0,17.0,17,0.00,,,0.00,,2013-04-18 23:21:00,
2013-04-18 18:32:00,59.0,11.0,29.83,West,271,5.0,13.0,15,0.00,,,0.00,,2013-04-18 23:32:00,
2013-04-18 18:42:00,59.0,11.0,29.83,West,271,5.0,13.0,15,0.00,,,0.00,,2013-04-18 23:42:00,
2013-04-18 18:52:00,59.0,11.0,29.83,West,271,5.0,13.0,15,0.00,,,0.00,,2013-04-18 23:52:00,
2013-04-18 19:01:00,57.0,10.0,29.87,NW,320,7.0,17.0,15,0.00,,,0.00,,2013-04-19 00:01:00,
2013-04-18 19:12:00,57.0,10.0,29.87,NW,320,7.0,17.0,15,0.00,,,0.00,,2013-04-19 00:12:00,
2013-04-18 19:22:00,57.0,10.0,29.87,NW,320,7.0,17.0,15,0.00,,,0.00,,2013-04-19 00:22:00,
2013-04-18 19:32:00,57.0,10.0,29.89,WSW,256,3.0,13.0,15,0.00,,,0.00,,2013-04-19 00:32:00,
2013-04-18 19:42:00,57.0,10.0,29.89,WSW,256,3.0,13.0,15,0.00,,,0.00,,2013-04-19 00:42:00,
2013-04-18 19:52:00,57.0,10.0,29.89,WSW,256,3.0,13.0,15,0.00,,,0.00,,2013-04-19 00:52:00,
2013-04-18 20:01:00,55.0,10.0,29.90,WNW,298,2.0,13.0,16,0.00,,,0.00,,2013-04-19 01:01:00,
2013-04-18 20:11:00,55.0,10.0,29.90,WNW,298,2.0,13.0,16,0.00,,,0.00,,2013-04-19 01:11:00,
2013-04-18 20:21:00,55.0,10.0,29.90,WNW,298,2.0,13.0,16,0.00,,,0.00,,2013-04-19 01:21:00,
2013-04-18 20:32:00,53.0,8.0,29.93,NNW,340,2.0,18.0,16,0.00,,,0.00,,2013-04-19 01:32:00,
2013-04-18 20:42:00,53.0,8.0,29.93,NNW,340,2.0,18.0,16,0.00,,,0.00,,2013-04-19 01:42:00,
2013-04-18 20:52:00,53.0,8.0,29.93,NNW,340,2.0,18.0,16,0.00,,,0.00,,2013-04-19 01:52:00,
2013-04-18 21:02:00,51.0,6.0,29.93,NW,306,2.0,15.0,16,0.00,,,0.00,,2013-04-19 02:02:00,
2013-04-18 21:11:00,51.0,6.0,29.93,NW,306,2.0,15.0,16,0.00,,,0.00,,2013-04-19 02:11:00,
2013-04-18 21:21:00,51.0,6.0,29.93,NW,306,2.0,15.0,16,0.00,,,0.00,,2013-04-19 02:21:00,
2013-04-18 21:32:00,50.0,4.0,29.95,West,278,2.0,12.0,15,0.00,,,0.00,,2013-04-19 02:32:00,
2013-04-18 21:42:00,50.0,4.0,29.95,West,278,2.0,12.0,15,0.00,,,0.00,,2013-04-19 02:42:00,
2013-04-18 21:52:00,50.0,4.0,29.95,West,278,2.0,12.0,15,0.00,,,0.00,,2013-04-19 02:52:00,
2013-04-18 22:01:00,46.0,19.0,29.99,NE,35,1.0,6.0,33,0.00,,,0.00,,2013-04-19 03:01:00,
2013-04-18 22:11:00,46.0,19.0,29.99,NE,35,1.0,6.0,33,0.00,,,0.00,,2013-04-19 03:11:00,
2013-04-18 22:21:00,46.0,19.0,29.99,NE,35,1.0,6.0,33,0.00,,,0.00,,2013-04-19 03:21:00,
2013-04-18 22:33:00,40.0,15.0,30.04,NE,35,0.0,3.0,36,0.00,,,0.00,,2013-04-19 03:33:00,
2013-04-18 22:43:00,40.0,15.0,30.04,NE,35,0.0,3.0,36,0.00,,,0.00,,2013-04-19 03:43:00,
2013-04-18 22:53:00,40.0,15.0,30.04,NE,35,0.0,3.0,36,0.00,,,0.00,,2013-04-19 03:53:00,
2013-04-18 23:03:00,36.0,15.0,30.06,NE,35,0.0,2.0,42,0.00,,,0.00,,2013-04-19 04:03:00,
2013-04-18 23:13:00,36.0,15.0,30.06,NE,35,0.0,2.0,42,0.00,,,0.00,,2013-04-19 04:13:00,
2013-04-18 23:23:00,36.0,15.0,30.06,NE,35,0.0,2.0,42,0.00,,,0.00,,2013-04-19 04:23:00,
2013-04-18 23:33:00,32.0,13.0,30.09,NE,35,0.0,1.0,45,0.00,,,0.00,,2013-04-19 04:33:00,
2013-04-18 23:43:00,32.0,13.0,30.09,NE,35,0.0,1.0,45,0.00,,,0.00,,2013-04-19 04:43:00,
2013-04-18 23:52:00,32.0,13.0,30.09,NE,35,0.0,1.0,45,0.00,,,0.00,,2013-04-19 04:52:00,